FVHP weather

Home Park Airport
Home Park, Mashonaland East Province, Zimbabwe

Public forecast

Using degrees Celsius for public forecast. Weather courtesy of forecast.io.

METAR (pilot weather report)

Closest report is Robert Gabriel Mugabe International Airport, 39.9 nm (74.0 km) WNW. Retrieved 2019/05/19 21:00 UTC (50 minutes ago):

FVRG 192100Z 09005KT CAVOK 13/08 Q1026 NOSIG

TAF (pilot weather forecast)

Forecast is more than 12 hours old.

Closest forecast is Robert Gabriel Mugabe International Airport, 39.9 nm (74.0 km) WNW. Retrieved 2019/05/19 06:00 UTC (16 hours ago):

TAF FVRG 190400Z 1906/2012 11007KT 9999 FEW025 BECMG 1907/1909 BKN040 PROB30 TEMPO 1912/1918 -SHRA FM192000 CAVOK